Wiarton Airport
CYVV : now visible

Airfield :











YOU CAN JOIN US ON...

 
LOGIN :

Register | Disclaimer

   EN    FR    IT 

 









Legend :    VFR   Marginal VFR   IFR   Intensive IFR   Very Intensive IFR
Visi :
Ceiling :
>= 8 km
>= 3000ft
5 to 8 km
1000 to 3000 ft
1500m to 5 km
500 to 1000 ft
800 to 1500m
200 to 500 ft
< 800m
< 200 ft
Symbols :   Thunderstorms  Fog  Heavy snow  Heavy precipitations  Wind > 20 kt






- Airport Elevation : 729 ft
- IATA code : YVV


CYVV - Wiarton

CURRENT METAR :
  • 181200Z 10008KT 15SM OVC045 M07/M11 A3018 RMK SC8 SLP237

EXPIRED METARs :
  • 181115Z 09007KT 15SM OVC045 M08/M12 A3021 RMK SC8 PRESFR SLP247
  • 181100Z 09006KT 12SM -SN BKN032 OVC070 M08/M12 A3022 RMK SC5AS3 SLP253
  • 181048Z 08007KT 12SM -SN BKN032 OVC070 M08/M12 A3024 RMK SC5AS3 SLP257
  • 181000Z 11007KT 15SM OVC045 M08/M13 A3028 RMK SC8 PRESFR SLP271
  • 180900Z 10009KT 15SM OVC050 M09/M13 A3034 RMK SC8 PRESFR SLP292

TAF TAF CYVV
Valid from the 18 at 12:00 until the 19 at 00:00 UTC


181138Z 1812/1824 12010G20KT P6SM -SN FEW012 OVC040
TEMPO 1812/1815 11/2SM -SN OVC012
FM181500 12012G22KT 11/2SM -SN OVC012
TEMPO 1815/1824 1/2SM SN OVC006 RMK NXT FCST BY 181400Z



MET'MAP, your aeronautical weather chart ! - Copyright ORBIFLY December 2007 - Disclaimer

ORBIFLY MET'MAP TEAM :

Programming & Development : Alexandra Zaïnal
Concept & original design : Baudouin d'Aumeries
Assistance for programming : Marc-Olivier Méhu
Technical & hardware support : Manuel Goepfert

Contact : metmap@orbifly.com




SOURCES & CREDITS :

   NOAA       Earth
Advisory